createdAt,value
2022-12-16T00:01:34.724Z,13.67
2022-12-16T00:04:06.164Z,11.33
2022-12-16T00:06:37.520Z,12.07
2022-12-16T00:09:09.253Z,12.87
2022-12-16T00:11:40.622Z,11.80
2022-12-16T00:14:11.993Z,11.10
2022-12-16T00:16:43.395Z,13.33
2022-12-16T00:19:15.036Z,11.33
2022-12-16T00:21:46.351Z,12.50
2022-12-16T00:24:17.698Z,10.93
2022-12-16T00:26:49.062Z,12.20
2022-12-16T00:29:20.559Z,12.40
2022-12-16T00:31:52.271Z,11.63
2022-12-16T00:34:24.027Z,12.30
2022-12-16T00:36:55.402Z,12.20
2022-12-16T00:39:26.723Z,11.03
2022-12-16T00:41:58.097Z,10.80
2022-12-16T00:44:29.462Z,11.80
2022-12-16T00:47:00.858Z,11.53
2022-12-16T00:49:32.204Z,11.00
2022-12-16T00:52:03.720Z,12.07
2022-12-16T00:54:38.348Z,11.37
2022-12-16T00:57:10.054Z,11.37
2022-12-16T00:59:41.404Z,11.27
2022-12-16T01:02:12.837Z,11.70
2022-12-16T01:04:44.511Z,10.10
2022-12-16T01:07:16.016Z,11.70
2022-12-16T01:09:47.379Z,10.77
2022-12-16T01:12:18.729Z,10.73
2022-12-16T01:14:50.160Z,10.97
2022-12-16T01:17:21.688Z,11.20
2022-12-16T01:19:56.395Z,11.63
2022-12-16T01:22:31.125Z,11.90
2022-12-16T01:25:03.694Z,11.77
2022-12-16T01:27:35.145Z,12.33
2022-12-16T01:30:09.033Z,11.63
2022-12-16T01:32:40.396Z,12.60
2022-12-16T01:35:43.913Z,13.13
2022-12-16T01:38:04.607Z,12.47
2022-12-16T01:40:35.990Z,13.07
2022-12-16T01:43:14.124Z,13.37
2022-12-16T01:45:45.716Z,12.60
2022-12-16T01:48:38.905Z,11.40
2022-12-16T01:51:32.373Z,11.23
2022-12-16T01:54:14.904Z,11.93
2022-12-16T01:56:54.306Z,12.00
2022-12-16T01:59:29.724Z,12.00
2022-12-16T02:02:02.793Z,12.23
2022-12-16T02:04:34.269Z,11.70
2022-12-16T02:07:05.521Z,11.47
2022-12-16T02:09:36.806Z,11.13
2022-12-16T02:12:40.656Z,11.17
2022-12-16T02:19:57.891Z,10.53
2022-12-16T02:22:44.851Z,11.47
2022-12-16T02:28:26.814Z,10.83
2022-12-16T02:31:09.585Z,10.30
2022-12-16T02:33:52.119Z,11.70
2022-12-16T02:36:40.981Z,11.20
2022-12-16T02:40:00.378Z,12.63
2022-12-16T02:42:37.629Z,10.83
2022-12-16T02:45:20.120Z,12.63
2022-12-16T02:47:51.562Z,12.27
2022-12-16T02:50:28.024Z,11.40
2022-12-16T02:53:01.280Z,13.43
2022-12-16T02:55:44.969Z,11.87
2022-12-16T02:58:22.916Z,12.30
2022-12-16T03:01:18.202Z,11.63
2022-12-16T03:03:52.252Z,11.23
2022-12-16T03:06:27.375Z,11.97
2022-12-16T03:09:03.497Z,11.83
2022-12-16T03:11:36.585Z,10.95
2022-12-16T03:14:11.445Z,12.97
2022-12-16T03:16:45.140Z,11.53
2022-12-16T03:19:16.605Z,12.70
2022-12-16T03:21:54.729Z,12.67
2022-12-16T03:24:26.214Z,12.23
2022-12-16T03:27:13.899Z,12.47
2022-12-16T03:29:58.875Z,10.83
2022-12-16T03:32:41.848Z,12.73
2022-12-16T03:35:16.263Z,13.73
2022-12-16T03:37:51.790Z,11.37
2022-12-16T03:40:25.369Z,12.45
2022-12-16T03:42:57.359Z,14.40
2022-12-16T03:45:35.676Z,12.37
2022-12-16T03:48:10.069Z,12.47
2022-12-16T03:50:41.494Z,11.60
2022-12-16T03:53:12.824Z,12.70
2022-12-16T03:55:44.344Z,12.10
2022-12-16T03:58:15.648Z,12.50
2022-12-16T04:00:47.153Z,12.03
2022-12-16T04:03:18.498Z,12.40
2022-12-16T04:05:49.908Z,13.00
2022-12-16T04:08:21.177Z,13.50
2022-12-16T04:11:12.358Z,12.03
2022-12-16T04:14:02.212Z,10.83
2022-12-16T04:16:51.968Z,11.80
2022-12-16T04:19:47.109Z,11.43
2022-12-16T04:22:44.895Z,11.33
2022-12-16T04:25:26.247Z,11.40
2022-12-16T04:27:58.638Z,11.50
2022-12-16T04:30:34.727Z,12.37
2022-12-16T04:33:28.446Z,11.82
2022-12-16T04:36:19.171Z,11.80
2022-12-16T04:39:09.468Z,12.17
2022-12-16T04:41:59.569Z,12.37
2022-12-16T04:44:49.641Z,11.57
2022-12-16T04:47:39.511Z,13.13
2022-12-16T04:50:29.794Z,10.97
2022-12-16T04:53:19.679Z,11.23
2022-12-16T04:56:09.305Z,10.33
2022-12-16T04:58:58.921Z,10.87
2022-12-16T05:01:48.930Z,10.53
2022-12-16T05:04:38.703Z,9.97
2022-12-16T05:07:32.001Z,10.60
2022-12-16T05:10:26.108Z,10.00
2022-12-16T05:13:16.005Z,12.47
2022-12-16T05:16:06.275Z,11.27
2022-12-16T05:18:56.414Z,11.37
2022-12-16T05:21:46.374Z,12.00
2022-12-16T05:24:36.463Z,11.93
2022-12-16T05:27:26.627Z,10.97
2022-12-16T05:30:16.460Z,10.83
2022-12-16T05:33:09.136Z,10.17
2022-12-16T05:35:58.873Z,11.63
2022-12-16T05:38:48.831Z,10.30
2022-12-16T05:41:38.957Z,10.65
2022-12-16T05:44:28.950Z,10.87
2022-12-16T05:47:18.933Z,10.27
2022-12-16T05:50:09.168Z,10.30
2022-12-16T05:52:59.091Z,9.63
2022-12-16T05:55:49.185Z,10.25
2022-12-16T05:58:39.177Z,11.40
2022-12-16T06:01:29.184Z,11.55
2022-12-16T06:04:19.675Z,10.32
2022-12-16T06:07:09.787Z,10.50
2022-12-16T06:09:59.494Z,10.85
2022-12-16T06:12:49.440Z,10.00
2022-12-16T06:15:39.787Z,10.05
2022-12-16T06:18:29.901Z,9.38
2022-12-16T06:21:19.693Z,10.40
2022-12-16T06:24:09.445Z,10.07
2022-12-16T06:26:59.194Z,9.45
2022-12-16T06:29:49.365Z,9.27
2022-12-16T06:32:39.472Z,11.43
2022-12-16T06:35:29.634Z,10.45
2022-12-16T06:38:19.368Z,11.05
2022-12-16T06:41:09.301Z,10.10
2022-12-16T06:43:59.075Z,10.35
2022-12-16T06:46:49.061Z,10.48
2022-12-16T06:49:39.033Z,9.40
2022-12-16T06:52:29.018Z,9.98
2022-12-16T06:55:18.921Z,11.00
2022-12-16T06:58:15.593Z,10.32
2022-12-16T07:01:05.894Z,10.07
2022-12-16T07:03:55.602Z,11.27
2022-12-16T07:06:45.593Z,10.13
2022-12-16T07:09:35.731Z,10.35
2022-12-16T07:12:25.725Z,11.30
2022-12-16T07:15:15.592Z,13.10
2022-12-16T07:18:05.310Z,10.82
2022-12-16T07:20:55.124Z,11.60
2022-12-16T07:23:45.224Z,11.98
2022-12-16T07:26:35.309Z,12.43
2022-12-16T07:29:25.335Z,10.85
2022-12-16T07:32:15.132Z,11.60
2022-12-16T07:35:04.909Z,12.90
2022-12-16T07:37:57.351Z,12.48
2022-12-16T07:40:51.923Z,13.98
2022-12-16T07:43:41.864Z,12.32
2022-12-16T07:46:31.750Z,10.93
2022-12-16T07:49:21.533Z,13.27
2022-12-16T07:52:11.396Z,13.80
2022-12-16T07:55:01.200Z,12.75
2022-12-16T07:57:51.211Z,12.05
2022-12-16T08:00:41.208Z,11.93
2022-12-16T08:03:31.750Z,12.77
2022-12-16T08:06:22.125Z,11.63
2022-12-16T08:09:11.950Z,11.73
2022-12-16T08:12:01.773Z,11.88
2022-12-16T08:14:51.584Z,12.88
2022-12-16T08:17:42.703Z,11.80
2022-12-16T08:20:32.786Z,11.70
2022-12-16T08:23:22.812Z,12.70
2022-12-16T08:26:12.643Z,17.85
2022-12-16T08:29:34.735Z,12.32
2022-12-16T08:32:12.414Z,13.13
2022-12-16T08:35:02.193Z,13.07
2022-12-16T08:37:52.161Z,14.27
2022-12-16T08:40:42.449Z,13.80
2022-12-16T08:43:33.494Z,15.65
2022-12-16T08:46:23.680Z,14.27
2022-12-16T08:49:13.316Z,12.95
2022-12-16T08:52:03.033Z,15.23
2022-12-16T08:54:52.857Z,15.45
2022-12-16T08:57:43.173Z,15.95
2022-12-16T09:00:33.733Z,16.15
2022-12-16T09:03:23.885Z,16.03
2022-12-16T09:06:18.296Z,14.73
2022-12-16T09:09:08.272Z,15.33
2022-12-16T09:11:58.606Z,15.83
2022-12-16T09:14:48.609Z,15.90
2022-12-16T09:17:38.706Z,16.83
2022-12-16T09:20:29.163Z,16.37
2022-12-16T09:23:22.964Z,15.60
2022-12-16T09:26:12.836Z,15.33
2022-12-16T09:29:02.957Z,16.50
2022-12-16T09:31:52.736Z,15.90
2022-12-16T09:34:42.878Z,15.90
2022-12-16T09:37:33.007Z,14.93
2022-12-16T09:40:24.031Z,15.30
2022-12-16T09:43:56.309Z,15.50
2022-12-16T09:47:24.506Z,16.13
2022-12-16T09:50:14.724Z,16.05
2022-12-16T09:53:15.719Z,15.23
2022-12-16T09:56:06.342Z,14.70
2022-12-16T09:59:02.199Z,16.03
2022-12-16T10:01:56.259Z,16.30
2022-12-16T10:04:46.988Z,14.63
2022-12-16T10:07:40.317Z,15.20
2022-12-16T10:10:41.163Z,14.97
2022-12-16T10:14:01.344Z,14.77
2022-12-16T10:17:40.764Z,16.03
2022-12-16T10:27:12.549Z,14.23
2022-12-16T10:30:04.869Z,14.45
2022-12-16T10:33:08.061Z,14.73
2022-12-16T10:36:07.885Z,15.30
2022-12-16T10:39:07.766Z,15.67
2022-12-16T10:42:03.699Z,14.53
2022-12-16T10:44:56.191Z,15.37
2022-12-16T10:47:46.249Z,15.67
2022-12-16T10:50:36.312Z,15.73
2022-12-16T10:53:35.946Z,14.43
2022-12-16T10:56:32.540Z,14.97
2022-12-16T10:59:24.611Z,15.67
2022-12-16T11:02:22.236Z,15.20
2022-12-16T11:05:12.540Z,15.60
2022-12-16T11:08:02.377Z,15.27
2022-12-16T11:10:56.387Z,14.97
2022-12-16T11:13:50.713Z,15.23
2022-12-16T11:16:44.697Z,14.50
2022-12-16T11:19:38.777Z,14.67
2022-12-16T11:22:37.878Z,14.83
2022-12-16T11:25:34.592Z,15.10
2022-12-16T11:28:35.724Z,13.45
2022-12-16T11:31:49.674Z,13.83
2022-12-16T11:34:39.792Z,15.33
2022-12-16T11:37:29.809Z,15.47
2022-12-16T11:40:21.127Z,15.50
2022-12-16T11:43:16.789Z,15.40
2022-12-16T11:46:10.154Z,16.30
2022-12-16T11:49:07.982Z,14.83
2022-12-16T11:52:21.153Z,15.53
2022-12-16T11:55:55.544Z,15.50
2022-12-16T11:58:55.250Z,16.00
2022-12-16T12:02:07.276Z,17.57
2022-12-16T12:04:58.892Z,15.83
2022-12-16T12:08:10.738Z,17.63
2022-12-16T12:11:29.384Z,16.53
2022-12-16T12:14:51.602Z,17.93
2022-12-16T12:18:06.646Z,15.87
2022-12-16T12:21:05.557Z,16.03
2022-12-16T12:24:23.124Z,16.53
2022-12-16T12:27:51.924Z,16.15
2022-12-16T12:31:02.848Z,14.88
2022-12-16T12:34:17.680Z,16.90
2022-12-16T12:37:16.141Z,15.93
2022-12-16T12:40:15.952Z,16.77
2022-12-16T12:43:11.882Z,15.30
2022-12-16T12:46:21.367Z,16.20
2022-12-16T12:49:40.818Z,16.60
2022-12-16T12:52:43.567Z,16.80
2022-12-16T12:55:47.179Z,17.43
2022-12-16T12:58:37.789Z,20.47
2022-12-16T13:01:29.254Z,19.27
2022-12-16T13:04:24.844Z,18.93
2022-12-16T13:07:17.677Z,18.10
2022-12-16T13:10:32.714Z,16.43
2022-12-16T13:13:42.948Z,16.00
2022-12-16T13:17:14.304Z,15.73
2022-12-16T13:20:12.483Z,16.40
2022-12-16T13:23:04.587Z,17.77
2022-12-16T13:26:10.628Z,16.50
2022-12-16T13:29:01.480Z,15.20
2022-12-16T13:31:51.611Z,14.97
2022-12-16T13:34:46.966Z,16.03
2022-12-16T13:37:42.900Z,15.83
2022-12-16T13:40:41.029Z,15.50
2022-12-16T13:44:05.357Z,15.33
2022-12-16T13:47:11.036Z,16.70
2022-12-16T13:50:04.993Z,17.57
2022-12-16T13:53:13.924Z,15.93
2022-12-16T13:56:14.758Z,17.40
2022-12-16T13:59:11.413Z,16.60
2022-12-16T14:02:16.729Z,17.05
2022-12-16T14:05:11.586Z,16.00
2022-12-16T14:08:02.554Z,17.60
2022-12-16T14:10:57.687Z,17.23
2022-12-16T14:14:14.229Z,15.30
2022-12-16T14:17:10.208Z,16.13
2022-12-16T14:20:20.723Z,16.73
2022-12-16T14:23:58.859Z,16.53
2022-12-16T14:26:49.257Z,15.47
2022-12-16T14:29:43.392Z,16.07
2022-12-16T14:32:46.877Z,17.73
2022-12-16T14:35:41.516Z,15.47
2022-12-16T14:38:49.074Z,17.00
2022-12-16T14:41:43.671Z,18.83
2022-12-16T14:44:39.925Z,15.73
2022-12-16T14:47:36.152Z,18.27
2022-12-16T14:50:38.435Z,16.90
2022-12-16T14:53:49.434Z,17.17
2022-12-16T14:56:41.588Z,17.67
2022-12-16T14:59:36.747Z,17.30
2022-12-16T15:02:39.348Z,17.63
2022-12-16T15:05:30.119Z,17.87
2022-12-16T15:08:19.873Z,18.33
2022-12-16T15:11:10.917Z,18.33
2022-12-16T15:14:03.892Z,17.10
2022-12-16T15:16:55.602Z,16.87
2022-12-16T15:20:01.549Z,17.43
2022-12-16T15:22:53.747Z,17.77
2022-12-16T15:25:45.305Z,18.30
2022-12-16T15:28:54.896Z,18.27
2022-12-16T15:32:03.480Z,24.23
2022-12-16T15:35:08.073Z,24.10
2022-12-16T15:38:04.332Z,20.33
2022-12-16T15:40:59.349Z,19.42
2022-12-16T15:43:57.308Z,19.57
2022-12-16T15:46:48.820Z,19.07
2022-12-16T15:49:50.353Z,19.00
2022-12-16T15:53:00.361Z,20.07
2022-12-16T15:55:59.505Z,19.80
2022-12-16T15:58:54.892Z,23.03
2022-12-16T16:01:46.632Z,18.30
2022-12-16T16:04:42.043Z,18.90
2022-12-16T16:07:40.933Z,20.17
2022-12-16T16:10:35.583Z,18.73
2022-12-16T16:13:25.592Z,18.97
2022-12-16T16:16:15.885Z,21.37
2022-12-16T16:19:05.653Z,20.40
2022-12-16T16:21:55.407Z,18.63
2022-12-16T16:24:45.503Z,16.77
2022-12-16T16:27:37.219Z,19.60
2022-12-16T16:30:28.835Z,19.90
2022-12-16T16:33:18.735Z,19.67
2022-12-16T16:36:08.700Z,17.83
2022-12-16T16:38:58.396Z,17.87
2022-12-16T16:41:48.537Z,19.27
2022-12-16T16:44:38.628Z,18.23
2022-12-16T16:47:35.169Z,18.93
2022-12-16T16:50:25.675Z,17.55
2022-12-16T16:53:15.822Z,18.57
2022-12-16T16:56:05.635Z,18.77
2022-12-16T16:58:55.460Z,17.63
2022-12-16T17:01:45.539Z,19.20
2022-12-16T17:04:35.590Z,19.73
2022-12-16T17:07:25.509Z,20.20
2022-12-16T17:10:15.162Z,20.47
2022-12-16T17:13:05.042Z,20.67
2022-12-16T17:15:56.179Z,22.10
2022-12-16T17:18:51.962Z,20.93
2022-12-16T17:21:41.976Z,20.73
2022-12-16T17:24:32.003Z,21.67
2022-12-16T17:27:36.748Z,20.73
2022-12-16T17:30:35.422Z,21.30
2022-12-16T17:33:25.523Z,20.83
2022-12-16T17:36:15.393Z,21.17
2022-12-16T17:39:05.191Z,24.13
2022-12-16T17:41:54.932Z,21.93
2022-12-16T17:44:46.044Z,21.53
2022-12-16T17:47:36.093Z,20.77
2022-12-16T17:50:26.613Z,21.53
2022-12-16T17:53:17.413Z,21.87
2022-12-16T17:56:07.264Z,22.63
2022-12-16T17:58:58.072Z,25.27
2022-12-16T18:01:48.056Z,24.80
2022-12-16T18:04:38.016Z,24.70
2022-12-16T18:07:28.002Z,24.67
2022-12-16T18:10:17.969Z,24.30
2022-12-16T18:13:08.241Z,23.13
2022-12-16T18:16:17.886Z,23.47
2022-12-16T18:19:09.075Z,23.43
2022-12-16T18:21:58.978Z,20.73
2022-12-16T18:24:48.929Z,21.43
2022-12-16T18:27:39.012Z,20.23
2022-12-16T18:30:30.146Z,21.10
2022-12-16T18:33:20.408Z,20.63
2022-12-16T18:36:10.251Z,18.63
2022-12-16T18:38:59.944Z,21.07
2022-12-16T18:41:49.967Z,20.57
2022-12-16T18:44:40.090Z,19.13
2022-12-16T18:47:30.669Z,21.27
2022-12-16T18:50:27.817Z,20.30
2022-12-16T18:53:19.201Z,20.10
2022-12-16T18:56:24.421Z,20.27
2022-12-16T18:59:14.166Z,18.50
2022-12-16T19:02:04.218Z,21.30
2022-12-16T19:04:54.415Z,20.70
2022-12-16T19:07:44.559Z,20.37
2022-12-16T19:10:34.637Z,21.47
2022-12-16T19:13:24.584Z,20.00
2022-12-16T19:16:15.974Z,20.70
2022-12-16T19:19:05.827Z,19.60
2022-12-16T19:21:56.562Z,20.17
2022-12-16T19:24:46.769Z,19.67
2022-12-16T19:27:36.847Z,22.60
2022-12-16T19:30:28.045Z,25.60
2022-12-16T19:33:17.898Z,25.70
2022-12-16T19:36:07.761Z,25.60
2022-12-16T19:38:57.496Z,23.10
2022-12-16T19:41:47.532Z,22.90
2022-12-16T19:44:37.474Z,23.00
2022-12-16T19:47:27.570Z,23.53
2022-12-16T19:50:17.689Z,21.83
2022-12-16T19:53:07.734Z,21.83
2022-12-16T19:55:57.816Z,22.83
2022-12-16T19:58:47.861Z,25.20
2022-12-16T20:01:37.951Z,30.40
2022-12-16T20:04:28.308Z,29.33
2022-12-16T20:07:23.048Z,32.57
2022-12-16T20:10:13.450Z,36.80
2022-12-16T20:13:03.321Z,35.13
2022-12-16T20:15:53.156Z,33.10
2022-12-16T20:18:46.331Z,33.13
2022-12-16T20:21:36.250Z,33.00
2022-12-16T20:24:26.387Z,33.90
2022-12-16T20:27:16.441Z,34.83
2022-12-16T20:30:06.365Z,29.67
2022-12-16T20:32:56.301Z,31.53
2022-12-16T20:35:46.133Z,30.23
2022-12-16T20:38:36.255Z,26.97
2022-12-16T20:41:26.237Z,26.57
2022-12-16T20:44:15.915Z,31.40
2022-12-16T20:47:05.641Z,24.50
2022-12-16T20:49:55.368Z,25.90
2022-12-16T20:52:45.931Z,28.53
2022-12-16T20:55:36.024Z,27.57
2022-12-16T20:58:26.122Z,26.87
2022-12-16T21:01:15.889Z,27.47
2022-12-16T21:04:05.739Z,25.60
2022-12-16T21:06:56.186Z,24.23
2022-12-16T21:09:45.981Z,23.37
2022-12-16T21:12:35.887Z,23.60
2022-12-16T21:15:26.404Z,22.53
2022-12-16T21:18:19.814Z,24.63
2022-12-16T21:21:11.534Z,25.10
2022-12-16T21:24:01.353Z,30.40
2022-12-16T21:26:51.495Z,28.17
2022-12-16T21:29:41.698Z,25.27
2022-12-16T21:32:31.805Z,24.27
2022-12-16T21:35:22.136Z,24.23
2022-12-16T21:38:12.357Z,25.80
2022-12-16T21:41:02.225Z,24.43
2022-12-16T21:43:52.083Z,23.70
2022-12-16T21:46:42.274Z,26.37
2022-12-16T21:49:32.299Z,27.37
2022-12-16T21:52:22.595Z,28.47
2022-12-16T21:55:12.395Z,27.80
2022-12-16T21:58:02.323Z,27.47
2022-12-16T22:00:56.188Z,27.67
2022-12-16T22:03:54.244Z,26.13
2022-12-16T22:09:57.152Z,25.20
2022-12-16T22:12:47.210Z,25.93
2022-12-16T22:15:37.138Z,25.50
2022-12-16T22:18:27.241Z,25.00
2022-12-16T22:21:21.644Z,22.47
2022-12-16T22:24:31.697Z,22.50
2022-12-16T22:27:21.552Z,25.77
2022-12-16T22:30:11.555Z,23.97
2022-12-16T22:33:01.359Z,22.90
2022-12-16T22:35:52.495Z,23.63
2022-12-16T22:38:42.495Z,23.13
2022-12-16T22:41:32.725Z,21.67
2022-12-16T22:44:22.801Z,24.00
2022-12-16T22:47:12.617Z,21.10
2022-12-16T22:50:02.380Z,21.07
2022-12-16T22:52:52.411Z,23.50
2022-12-16T22:55:43.419Z,23.80
2022-12-16T22:58:33.519Z,22.40
2022-12-16T23:01:27.228Z,23.23
2022-12-16T23:04:17.096Z,22.70
2022-12-16T23:07:06.908Z,24.43
2022-12-16T23:09:57.188Z,22.53
2022-12-16T23:12:47.246Z,21.07
2022-12-16T23:15:37.437Z,19.97
2022-12-16T23:18:27.666Z,22.43
2022-12-16T23:21:17.439Z,20.90
2022-12-16T23:24:10.594Z,21.60
2022-12-16T23:27:02.296Z,20.40
2022-12-16T23:29:52.033Z,20.97
2022-12-16T23:32:31.396Z,26.73
2022-12-16T23:32:43.150Z,22.23
2022-12-16T23:35:33.100Z,20.23
2022-12-16T23:38:25.191Z,22.20
2022-12-16T23:41:16.561Z,21.97
2022-12-16T23:44:06.299Z,22.60
2022-12-16T23:46:56.048Z,21.20
2022-12-16T23:49:46.666Z,21.23
2022-12-16T23:52:36.732Z,21.40
2022-12-16T23:55:27.276Z,22.43
2022-12-16T23:58:22.858Z,22.27
